Time;durP1;ratioP1;P1;durP2;ratioP2;P2;SDS_P1;SDS_P2;PMS_P1;PMS_P2;Temp;Humidity;BMP_temperature;BMP_pressure;BME280_temperature;BME280_humidity;BME280_pressure;Samples;Min_cycle;Max_cycle;Signal;HPM_P1;HPM_P2
2022/05/12 00:01:42;;;;;;;15.10;9.18;;;19.70;99.90;;;;;;4973912;28;20330;-69
2022/05/12 00:04:32;;;;;;;12.77;9.68;;;19.60;99.90;;;;;;4995234;28;20241;-71
2022/05/12 00:07:21;;;;;;;14.20;9.15;;;19.60;99.90;;;;;;4991539;28;20222;-70
2022/05/12 00:10:18;;;;;;;11.45;9.10;;;19.60;99.90;;;;;;4997591;28;21035;-70
2022/05/12 00:13:08;;;;;;;11.40;9.50;;;19.60;99.90;;;;;;4988553;28;20226;-70
2022/05/12 00:15:58;;;;;;;15.02;9.57;;;19.60;99.90;;;;;;4997447;28;20316;-70
2022/05/12 00:18:47;;;;;;;14.82;9.93;;;19.60;99.90;;;;;;4992981;28;20217;-70
2022/05/12 00:21:36;;;;;;;13.18;8.95;;;19.50;99.90;;;;;;5021300;28;20241;-69
2022/05/12 00:24:25;;;;;;;14.30;9.55;;;19.50;99.90;;;;;;5015489;28;20230;-71
2022/05/12 00:27:15;;;;;;;17.90;9.25;;;19.50;99.90;;;;;;4998466;28;20774;-69
2022/05/12 00:30:09;;;;;;;18.55;9.57;;;19.50;99.90;;;;;;4999794;28;20238;-70
2022/05/12 00:32:58;;;;;;;13.70;8.88;;;19.50;99.90;;;;;;4991810;28;20242;-69
2022/05/12 00:35:48;;;;;;;14.95;9.02;;;19.50;99.90;;;;;;4993186;28;20237;-70
2022/05/12 00:38:36;;;;;;;14.18;9.40;;;19.40;99.90;;;;;;4993646;28;20226;-70
2022/05/12 00:41:25;;;;;;;14.05;8.63;;;19.40;99.90;;;;;;4997461;28;22174;-69
2022/05/12 00:44:16;;;;;;;12.18;8.73;;;19.40;99.90;;;;;;5005510;28;20233;-70
2022/05/12 00:47:05;;;;;;;15.02;9.02;;;19.40;99.90;;;;;;5021716;28;20267;-70
2022/05/12 00:49:54;;;;;;;11.90;8.75;;;19.40;99.90;;;;;;5022921;28;20658;-69
2022/05/12 00:52:48;;;;;;;14.00;8.30;;;19.40;99.90;;;;;;5011909;28;20213;-70
2022/05/12 00:55:41;;;;;;;15.73;8.60;;;19.40;99.90;;;;;;5001644;28;20860;-70
2022/05/12 00:58:32;;;;;;;12.77;8.52;;;19.40;99.90;;;;;;5013548;28;21130;-70
2022/05/12 01:01:23;;;;;;;14.43;8.80;;;19.40;99.90;;;;;;5014082;28;20341;-69
2022/05/12 01:04:12;;;;;;;11.15;8.70;;;19.50;99.90;;;;;;5015536;28;20312;-70
2022/05/12 01:07:01;;;;;;;11.38;7.95;;;19.50;99.90;;;;;;5013147;28;20319;-69
2022/05/12 01:09:50;;;;;;;14.68;8.48;;;19.50;99.90;;;;;;5004984;28;20370;-71
2022/05/12 01:12:41;;;;;;;16.08;8.27;;;19.50;99.90;;;;;;4992544;28;20225;-69
2022/05/12 01:15:30;;;;;;;11.30;8.20;;;19.50;99.90;;;;;;5021322;28;20217;-69
2022/05/12 01:18:20;;;;;;;9.90;7.53;;;19.50;99.90;;;;;;5010295;28;20725;-70
2022/05/12 01:21:11;;;;;;;8.30;7.50;;;19.50;99.90;;;;;;5005757;28;20908;-70
2022/05/12 01:24:01;;;;;;;10.32;8.02;;;19.50;99.90;;;;;;4994291;28;20640;-69
2022/05/12 01:26:50;;;;;;;12.27;7.70;;;19.50;99.90;;;;;;4982502;28;21086;-69
2022/05/12 01:29:39;;;;;;;11.88;8.98;;;19.50;99.90;;;;;;5003079;28;20215;-71
2022/05/12 01:32:29;;;;;;;12.82;8.15;;;19.50;99.90;;;;;;5011477;28;20692;-68
2022/05/12 01:35:24;;;;;;;11.00;7.60;;;19.50;99.90;;;;;;5021084;28;20220;-70
2022/05/12 01:38:14;;;;;;;13.40;8.07;;;19.50;99.90;;;;;;4993888;28;20756;-69
2022/05/12 01:41:07;;;;;;;10.20;8.10;;;19.40;99.90;;;;;;4998350;28;20901;-71
2022/05/12 01:43:56;;;;;;;8.85;7.90;;;19.50;99.90;;;;;;4982526;28;20234;-69
2022/05/12 01:46:45;;;;;;;14.20;7.90;;;19.40;99.90;;;;;;5004971;28;21047;-69
2022/05/12 01:49:35;;;;;;;11.07;7.53;;;19.40;99.90;;;;;;5005508;28;20235;-70
2022/05/12 01:52:24;;;;;;;12.10;7.70;;;19.40;99.90;;;;;;5012907;28;20233;-70
2022/05/12 01:55:13;;;;;;;14.10;7.47;;;19.40;99.90;;;;;;5015319;28;20245;-68
2022/05/12 01:58:03;;;;;;;11.20;7.53;;;19.40;99.90;;;;;;4990778;28;20544;-70
2022/05/12 02:00:52;;;;;;;11.32;7.68;;;19.40;99.90;;;;;;5000704;28;20233;-68
2022/05/12 02:03:41;;;;;;;8.55;7.68;;;19.40;99.90;;;;;;4995692;28;20291;-68
2022/05/12 02:06:30;;;;;;;8.50;7.45;;;19.40;99.90;;;;;;4995691;28;20321;-69
2022/05/12 02:09:18;;;;;;;12.48;7.63;;;19.40;99.90;;;;;;5015757;28;20218;-66
2022/05/12 02:12:08;;;;;;;10.07;8.05;;;19.40;99.90;;;;;;4999359;28;20315;-68
2022/05/12 02:14:58;;;;;;;10.50;7.45;;;19.30;99.90;;;;;;5017980;28;20339;-68
2022/05/12 02:17:49;;;;;;;10.50;7.57;;;19.30;99.90;;;;;;5023069;28;20221;-67
2022/05/12 02:20:38;;;;;;;9.20;7.22;;;19.30;99.90;;;;;;5008014;28;20699;-69
2022/05/12 02:23:27;;;;;;;13.50;7.45;;;19.30;99.90;;;;;;5024243;28;20225;-68
2022/05/12 02:26:16;;;;;;;14.07;7.30;;;19.30;99.90;;;;;;5007667;28;20309;-69
2022/05/12 02:29:05;;;;;;;9.25;6.93;;;19.30;99.90;;;;;;5006468;28;20316;-68
2022/05/12 02:31:55;;;;;;;11.15;7.40;;;19.20;99.90;;;;;;4993040;28;20280;-70
2022/05/12 02:34:44;;;;;;;9.57;6.93;;;19.20;99.90;;;;;;4997321;28;20242;-69
2022/05/12 02:37:33;;;;;;;10.57;6.75;;;19.20;99.90;;;;;;4977649;28;20249;-69
2022/05/12 02:40:24;;;;;;;12.02;7.38;;;19.20;99.90;;;;;;4997644;28;20329;-69
2022/05/12 02:43:25;;;;;;;11.02;7.18;;;19.20;99.90;;;;;;4980771;28;20237;-69
2022/05/12 02:46:15;;;;;;;8.40;6.80;;;19.20;99.90;;;;;;4993010;28;20676;-70
2022/05/12 02:49:05;;;;;;;15.70;7.53;;;19.20;99.90;;;;;;4993968;28;20230;-69
2022/05/12 02:51:58;;;;;;;12.70;7.15;;;19.10;99.90;;;;;;4983880;28;20295;-69
2022/05/12 02:54:46;;;;;;;11.80;6.90;;;19.10;99.90;;;;;;4999573;28;20218;-70
2022/05/12 02:57:36;;;;;;;7.78;6.35;;;19.10;99.90;;;;;;4988008;28;20241;-70
2022/05/12 03:00:29;;;;;;;7.97;7.00;;;19.10;99.90;;;;;;4999546;28;21182;-71
2022/05/12 03:03:22;;;;;;;10.63;7.20;;;19.10;99.90;;;;;;4984145;28;20269;-71
2022/05/12 03:06:12;;;;;;;8.43;6.80;;;19.10;99.90;;;;;;4987048;28;20721;-72
2022/05/12 03:09:01;;;;;;;11.70;6.68;;;19.10;99.90;;;;;;4996229;28;20230;-71
2022/05/12 03:11:51;;;;;;;7.30;6.43;;;19.10;99.90;;;;;;4982346;28;20224;-70
2022/05/12 03:14:40;;;;;;;9.23;6.43;;;19.10;99.90;;;;;;4997648;28;20211;-72
2022/05/12 03:17:29;;;;;;;8.75;6.60;;;19.10;99.90;;;;;;4990318;28;20226;-70
2022/05/12 03:20:22;;;;;;;8.82;6.75;;;19.10;99.90;;;;;;4990551;28;21348;-70
2022/05/12 03:23:13;;;;;;;10.15;5.95;;;19.10;99.90;;;;;;4991526;28;20229;-70
2022/05/12 03:26:02;;;;;;;9.20;6.20;;;19.10;99.90;;;;;;4995833;28;20237;-70
2022/05/12 03:28:51;;;;;;;10.25;6.35;;;19.10;99.90;;;;;;4995666;28;20579;-70
2022/05/12 03:31:40;;;;;;;12.73;6.85;;;19.10;99.90;;;;;;5005452;28;20213;-70
2022/05/12 03:34:30;;;;;;;11.13;6.45;;;19.10;99.90;;;;;;5015748;28;20268;-69
2022/05/12 03:37:19;;;;;;;11.30;6.55;;;19.20;99.90;;;;;;4995483;28;20224;-68
2022/05/12 03:40:11;;;;;;;14.48;6.72;;;19.20;99.90;;;;;;5006067;28;20251;-69
2022/05/12 03:43:00;;;;;;;9.57;6.25;;;19.20;99.90;;;;;;5008373;28;20631;-69
2022/05/12 03:45:48;;;;;;;11.55;6.07;;;19.30;99.90;;;;;;5013098;28;20213;-69
2022/05/12 03:48:39;;;;;;;9.63;5.72;;;19.30;99.90;;;;;;5019148;28;20226;-69
2022/05/12 03:51:28;;;;;;;9.95;6.22;;;19.30;99.90;;;;;;4992528;28;21157;-69
2022/05/12 03:54:17;;;;;;;9.68;5.97;;;19.40;99.90;;;;;;5009797;28;20222;-69
2022/05/12 03:57:08;;;;;;;12.32;6.18;;;19.40;99.90;;;;;;4992916;28;20260;-68
2022/05/12 03:59:56;;;;;;;12.73;6.40;;;19.50;99.90;;;;;;5023851;28;20295;-70
2022/05/12 04:02:46;;;;;;;8.65;5.95;;;19.50;99.90;;;;;;4996788;28;20582;-70
2022/05/12 04:05:35;;;;;;;11.93;5.50;;;19.60;99.90;;;;;;4999128;28;20228;-70
2022/05/12 04:08:23;;;;;;;11.07;5.50;;;19.60;99.90;;;;;;5003007;28;20607;-70
2022/05/12 04:11:12;;;;;;;9.85;5.90;;;19.50;99.90;;;;;;5009950;28;20235;-69
2022/05/12 04:14:04;;;;;;;10.20;5.60;;;19.50;99.90;;;;;;4999105;28;20232;-69
2022/05/12 04:16:52;;;;;;;8.32;5.55;;;19.50;99.90;;;;;;4995034;28;20233;-69
2022/05/12 04:19:42;;;;;;;11.07;6.07;;;19.50;99.90;;;;;;4994141;28;20219;-69
2022/05/12 04:22:31;;;;;;;10.02;5.97;;;19.50;99.90;;;;;;4998546;28;20229;-69
2022/05/12 04:25:20;;;;;;;8.40;5.80;;;19.60;99.90;;;;;;4998501;28;20264;-68
2022/05/12 04:28:09;;;;;;;9.48;5.28;;;19.70;99.90;;;;;;4999618;28;20587;-70
2022/05/12 04:30:59;;;;;;;7.80;5.38;;;19.70;99.90;;;;;;4998802;28;20230;-70
2022/05/12 04:36:55;;;;;;;7.93;5.53;;;19.60;99.90;;;;;;4996084;28;20225;-70
2022/05/12 04:39:44;;;;;;;12.00;5.68;;;19.70;99.90;;;;;;4995713;28;20254;-71
2022/05/12 04:42:33;;;;;;;13.38;5.60;;;19.80;99.90;;;;;;4994326;28;20356;-70
2022/05/12 04:45:24;;;;;;;11.63;5.65;;;19.90;99.90;;;;;;5011061;28;20230;-70
2022/05/12 04:48:14;;;;;;;10.85;5.45;;;19.90;99.90;;;;;;5008729;28;20229;-68
2022/05/12 04:51:07;;;;;;;16.60;5.78;;;20.00;99.90;;;;;;5021438;28;20232;-70
2022/05/12 04:53:56;;;;;;;27.23;7.10;;;20.10;99.90;;;;;;5023123;28;21287;-69
2022/05/12 04:56:45;;;;;;;9.95;5.65;;;20.20;99.70;;;;;;5023069;28;20234;-70
2022/05/12 04:59:34;;;;;;;9.82;5.10;;;20.30;99.60;;;;;;5009536;28;21404;-71
2022/05/12 05:02:23;;;;;;;11.32;5.68;;;20.40;98.90;;;;;;5022008;28;20250;-70
2022/05/12 05:05:14;;;;;;;11.23;5.65;;;20.40;98.80;;;;;;4990988;28;22377;-70
2022/05/12 05:08:03;;;;;;;6.70;5.20;;;20.50;98.30;;;;;;5003727;28;20713;-70
2022/05/12 05:10:54;;;;;;;8.38;5.30;;;20.60;98.00;;;;;;5002662;28;20218;-70
2022/05/12 05:13:42;;;;;;;13.00;5.30;;;20.70;97.90;;;;;;5002042;28;20218;-72
2022/05/12 05:16:35;;;;;;;13.20;5.50;;;20.70;97.70;;;;;;5002187;28;20329;-72
2022/05/12 05:19:23;;;;;;;7.60;5.35;;;20.80;97.50;;;;;;5006936;28;20297;-70
2022/05/12 05:22:14;;;;;;;7.10;5.00;;;21.00;96.90;;;;;;5001843;28;20725;-69
2022/05/12 05:25:03;;;;;;;8.23;5.18;;;21.10;96.10;;;;;;5000098;28;20230;-70
2022/05/12 05:27:54;;;;;;;9.57;5.00;;;21.20;95.90;;;;;;5010264;28;20589;-70
2022/05/12 05:30:47;;;;;;;10.57;5.03;;;21.30;95.40;;;;;;4988480;28;20713;-70
2022/05/12 05:33:35;;;;;;;13.90;5.82;;;21.30;95.30;;;;;;4985641;28;20222;-71
2022/05/12 05:36:24;;;;;;;13.55;5.50;;;21.40;95.20;;;;;;5013299;28;20352;-69
2022/05/12 05:39:24;;;;;;;14.93;5.85;;;21.50;95.20;;;;;;5020633;28;20295;-70
2022/05/12 05:42:16;;;;;;;16.02;5.10;;;21.50;94.50;;;;;;5001096;28;20608;-70
2022/05/12 05:45:10;;;;;;;9.52;5.60;;;21.50;94.20;;;;;;5010862;28;20299;-71
2022/05/12 05:48:04;;;;;;;8.45;4.95;;;21.50;94.30;;;;;;4989908;28;20217;-69
2022/05/12 05:53:58;;;;;;;7.88;4.93;;;22.00;93.00;;;;;;5002392;28;20222;-70
2022/05/12 05:56:48;;;;;;;13.45;5.35;;;22.20;92.40;;;;;;4995475;28;20261;-71
2022/05/12 05:59:37;;;;;;;10.35;5.30;;;22.30;91.70;;;;;;4998019;28;20234;-71
2022/05/12 06:02:27;;;;;;;15.27;5.72;;;23.00;90.20;;;;;;4989984;28;20392;-72
2022/05/12 06:05:17;;;;;;;20.58;5.93;;;23.60;87.60;;;;;;5001007;28;20630;-72
2022/05/12 06:08:09;;;;;;;15.98;5.93;;;23.30;85.80;;;;;;5002970;28;20237;-71
2022/05/12 06:11:04;;;;;;;12.48;5.95;;;23.20;86.60;;;;;;5002888;28;20226;-72
2022/05/12 06:13:54;;;;;;;10.95;5.00;;;23.10;87.00;;;;;;5000612;28;20619;-74
2022/05/12 06:16:43;;;;;;;8.98;5.00;;;23.00;86.90;;;;;;4994867;28;21055;-72
2022/05/12 06:19:32;;;;;;;13.65;5.25;;;23.10;87.60;;;;;;5003463;28;20234;-75
2022/05/12 06:22:21;;;;;;;9.45;5.30;;;23.00;86.70;;;;;;4999330;28;20356;-73
2022/05/12 06:25:12;;;;;;;16.15;6.05;;;23.10;87.30;;;;;;5003164;28;20228;-78
2022/05/12 06:28:01;;;;;;;12.35;5.53;;;23.20;86.90;;;;;;5028840;28;20229;-78
2022/05/12 06:30:51;;;;;;;13.60;6.07;;;23.30;86.90;;;;;;5018063;28;20259;-72
2022/05/12 06:33:41;;;;;;;21.15;6.35;;;23.40;86.50;;;;;;5001736;28;20447;-73
2022/05/12 06:36:30;;;;;;;13.75;6.07;;;23.50;85.90;;;;;;5010783;28;20316;-73
2022/05/12 06:39:23;;;;;;;18.88;6.15;;;23.60;84.50;;;;;;5037157;28;20273;-72
2022/05/12 06:42:12;;;;;;;17.65;5.85;;;23.60;85.70;;;;;;5020121;28;20233;-72
2022/05/12 06:45:04;;;;;;;15.20;5.93;;;23.70;84.10;;;;;;5014609;28;20307;-72
2022/05/12 06:47:55;;;;;;;15.40;6.65;;;23.80;83.60;;;;;;4998176;28;20293;-72
2022/05/12 06:50:43;;;;;;;23.52;5.82;;;24.00;83.00;;;;;;5019167;28;20336;-71
2022/05/12 06:53:32;;;;;;;23.83;6.20;;;24.10;83.00;;;;;;5001859;28;20225;-71
2022/05/12 06:56:26;;;;;;;9.70;5.53;;;24.30;83.00;;;;;;5002751;28;20230;-73
2022/05/12 06:59:15;;;;;;;15.77;6.35;;;24.40;82.10;;;;;;5002272;28;20234;-71
2022/05/12 07:02:04;;;;;;;18.45;6.10;;;24.60;82.00;;;;;;5002840;28;20265;-71
2022/05/12 07:04:54;;;;;;;19.92;6.25;;;24.70;80.60;;;;;;5026624;28;20326;-72
2022/05/12 07:07:43;;;;;;;21.23;5.55;;;24.80;80.10;;;;;;5015254;28;20310;-73
2022/05/12 07:10:36;;;;;;;18.88;6.90;;;25.00;79.90;;;;;;5020712;28;20221;-72
2022/05/12 07:13:25;;;;;;;15.63;6.28;;;25.00;79.10;;;;;;5022237;28;20217;-71
2022/05/12 07:16:14;;;;;;;17.42;6.13;;;25.20;79.10;;;;;;5006470;28;20225;-71
2022/05/12 07:19:07;;;;;;;22.42;6.15;;;25.30;78.10;;;;;;5033455;28;20283;-72
2022/05/12 07:28:10;;;;;;;22.83;6.13;;;25.80;76.00;;;;;;5019257;28;20248;-73
2022/05/12 07:31:02;;;;;;;30.88;6.97;;;26.40;75.10;;;;;;5012054;28;20348;-72
2022/05/12 07:33:58;;;;;;;31.42;7.07;;;26.70;72.80;;;;;;5022082;28;20313;-72
2022/05/12 07:36:50;;;;;;;26.58;6.55;;;26.90;71.50;;;;;;5028696;28;20214;-73
2022/05/12 07:39:40;;;;;;;36.95;7.15;;;26.00;71.80;;;;;;5034913;28;20222;-73
2022/05/12 07:42:29;;;;;;;67.45;8.10;;;26.50;71.80;;;;;;5005087;28;20257;-72
2022/05/12 07:45:18;;;;;;;25.02;6.70;;;27.30;70.00;;;;;;4999070;28;20245;-73
2022/05/12 07:48:11;;;;;;;25.65;6.85;;;28.10;68.60;;;;;;4996145;28;20222;-72
2022/05/12 07:51:00;;;;;;;22.08;6.60;;;26.90;70.50;;;;;;5019257;28;20308;-73
2022/05/12 07:53:50;;;;;;;22.42;7.45;;;26.40;71.70;;;;;;5004329;28;20231;-72
2022/05/12 07:56:40;;;;;;;63.95;8.63;;;26.50;71.40;;;;;;5021187;28;20221;-73
2022/05/12 07:59:29;;;;;;;27.08;7.63;;;26.30;72.00;;;;;;5043714;28;20660;-73
2022/05/12 08:02:19;;;;;;;24.80;7.60;;;26.30;71.70;;;;;;5019969;28;20239;-72
2022/05/12 08:05:09;;;;;;;23.35;8.30;;;26.60;72.90;;;;;;5007273;28;20242;-71
2022/05/12 08:07:58;;;;;;;18.23;6.90;;;27.00;71.60;;;;;;5031992;28;20276;-73
2022/05/12 08:10:46;;;;;;;19.10;6.63;;;27.80;69.00;;;;;;5004561;28;20489;-71
2022/05/12 08:13:37;;;;;;;22.55;6.68;;;27.20;70.10;;;;;;5021800;28;20316;-72
2022/05/12 08:16:27;;;;;;;9.93;6.40;;;28.10;69.00;;;;;;5008806;28;20222;-73
2022/05/12 08:19:16;;;;;;;12.02;6.25;;;28.10;69.50;;;;;;5002851;28;20221;-72
2022/05/12 08:22:05;;;;;;;16.00;6.20;;;28.70;66.50;;;;;;4998627;28;20238;-73
2022/05/12 08:24:54;;;;;;;17.55;6.57;;;27.70;68.10;;;;;;5006851;28;20221;-72
2022/05/12 08:27:42;;;;;;;16.83;6.00;;;27.20;70.20;;;;;;5008508;28;20235;-73
2022/05/12 08:30:33;;;;;;;14.50;6.00;;;30.20;65.70;;;;;;5021598;28;20220;-73
2022/05/12 08:33:23;;;;;;;25.02;7.10;;;27.60;67.80;;;;;;5012742;28;20243;-72
2022/05/12 08:36:12;;;;;;;12.73;6.38;;;26.30;70.80;;;;;;5000804;28;20320;-73
2022/05/12 08:39:01;;;;;;;12.93;6.55;;;25.40;73.20;;;;;;5023377;28;20306;-73
2022/05/12 08:41:55;;;;;;;16.88;5.53;;;27.20;72.00;;;;;;5010667;28;20232;-72
2022/05/12 08:44:44;;;;;;;13.75;5.80;;;26.60;70.60;;;;;;5019149;28;20735;-73
2022/05/12 08:47:38;;;;;;;9.45;5.15;;;25.90;71.50;;;;;;5011163;28;20229;-75
2022/05/12 08:50:29;;;;;;;19.13;5.57;;;25.20;73.20;;;;;;5019080;28;20308;-73
2022/05/12 08:53:22;;;;;;;15.10;5.22;;;24.90;74.20;;;;;;5012424;28;20252;-73
2022/05/12 08:56:13;;;;;;;16.98;5.47;;;24.50;75.00;;;;;;5009942;28;20912;-73
2022/05/12 08:59:02;;;;;;;16.02;5.15;;;24.40;75.50;;;;;;5026735;28;20550;-73
2022/05/12 09:01:59;;;;;;;17.63;4.75;;;24.00;76.70;;;;;;5037061;28;20347;-73
2022/05/12 09:05:02;;;;;;;13.57;5.20;;;25.40;75.80;;;;;;5023108;28;20222;-73
2022/05/12 09:07:55;;;;;;;19.25;5.05;;;25.10;73.60;;;;;;5022945;28;20308;-73
2022/05/12 09:10:54;;;;;;;15.68;4.38;;;24.60;74.60;;;;;;5019261;28;20363;-74
2022/05/12 09:13:50;;;;;;;12.90;4.35;;;24.50;75.00;;;;;;5022859;28;20217;-72
2022/05/12 09:16:39;;;;;;;17.20;4.65;;;24.10;76.90;;;;;;5019399;28;20361;-72
2022/05/12 09:19:29;;;;;;;14.25;4.60;;;24.10;76.90;;;;;;5037057;28;20672;-72
2022/05/12 09:22:30;;;;;;;14.90;4.53;;;24.10;77.10;;;;;;5022931;28;20226;-73
2022/05/12 09:25:34;;;;;;;18.48;3.83;;;23.90;77.20;;;;;;5000337;28;20518;-73
2022/05/12 09:28:31;;;;;;;9.85;3.20;;;23.40;77.40;;;;;;5004988;28;20293;-71
2022/05/12 09:31:21;;;;;;;17.35;3.28;;;23.00;77.40;;;;;;4999070;28;20237;-72
2022/05/12 09:34:21;;;;;;;12.50;2.53;;;23.40;76.50;;;;;;4986920;28;20219;-73
2022/05/12 09:37:20;;;;;;;12.98;2.30;;;24.20;75.70;;;;;;4999663;28;20701;-72
2022/05/12 09:40:32;;;;;;;13.48;2.45;;;24.50;72.50;;;;;;5011324;28;20221;-72
2022/05/12 09:43:28;;;;;;;12.48;2.17;;;24.10;73.20;;;;;;5013686;28;20240;-73
2022/05/12 09:46:23;;;;;;;6.68;2.08;;;23.50;75.20;;;;;;5029078;28;20228;-73
2022/05/12 09:49:20;;;;;;;15.68;2.45;;;23.50;75.60;;;;;;4998970;28;20229;-73
2022/05/12 09:52:31;;;;;;;20.85;2.60;;;26.20;72.20;;;;;;4977968;28;20226;-73
2022/05/12 09:55:28;;;;;;;19.13;2.67;;;29.00;64.10;;;;;;4985282;28;20714;-71
2022/05/12 09:58:33;;;;;;;27.73;3.45;;;28.60;61.50;;;;;;4981659;28;20218;-73
2022/05/12 10:01:24;;;;;;;29.52;3.15;;;28.00;63.10;;;;;;4980073;28;20677;-73
2022/05/12 10:10:42;;;;;;;23.02;3.17;;;26.00;66.70;;;;;;4961447;28;20219;-73
2022/05/12 10:13:37;;;;;;;18.58;2.63;;;25.80;67.50;;;;;;4964643;28;20283;-74
2022/05/12 10:16:30;;;;;;;19.20;2.53;;;25.90;67.20;;;;;;4963672;28;20220;-75
2022/05/12 10:19:22;;;;;;;24.38;2.58;;;25.40;66.00;;;;;;4960572;28;20250;-72
2022/05/12 10:22:18;;;;;;;20.08;3.47;;;27.40;63.80;;;;;;4975191;28;20229;-72
2022/05/12 10:25:22;;;;;;;20.10;2.83;;;28.70;62.00;;;;;;4981128;28;20235;-73
2022/05/12 10:28:19;;;;;;;21.42;3.03;;;28.50;60.90;;;;;;5000610;28;20231;-73
2022/05/12 10:31:21;;;;;;;15.25;2.08;;;28.80;62.10;;;;;;4961044;28;20307;-74
2022/05/12 10:34:27;;;;;;;26.13;2.50;;;28.80;58.40;;;;;;4978374;28;20229;-74
2022/05/12 10:37:36;;;;;;;21.52;2.08;;;27.00;60.30;;;;;;4977314;28;20222;-74
2022/05/12 10:40:33;;;;;;;18.08;1.83;;;28.90;59.90;;;;;;4965389;28;20226;-72
2022/05/12 10:43:42;;;;;;;17.33;1.80;;;26.80;58.70;;;;;;4972969;28;20229;-73
2022/05/12 10:46:41;;;;;;;19.65;1.90;;;26.50;59.90;;;;;;4981331;28;20224;-74
2022/05/12 10:49:37;;;;;;;19.42;2.10;;;26.00;62.00;;;;;;4976664;28;20235;-72
2022/05/12 10:52:34;;;;;;;14.00;1.92;;;26.70;62.70;;;;;;4985335;28;20227;-71
2022/05/12 10:55:28;;;;;;;23.90;2.55;;;27.50;59.90;;;;;;4979875;28;20242;-74
2022/05/12 10:58:29;;;;;;;14.90;2.25;;;26.10;62.30;;;;;;4977851;28;20681;-72
2022/05/12 11:01:22;;;;;;;27.90;2.38;;;26.20;62.90;;;;;;4982737;28;20310;-71
2022/05/12 11:04:14;;;;;;;16.20;2.30;;;26.60;63.70;;;;;;5003033;28;20216;-72
2022/05/12 11:07:08;;;;;;;18.65;2.30;;;27.20;63.90;;;;;;4981138;28;20235;-74
2022/05/12 11:10:05;;;;;;;16.73;1.92;;;30.00;60.00;;;;;;4978412;28;20697;-73
2022/05/12 11:12:59;;;;;;;21.30;2.30;;;31.20;57.10;;;;;;4980343;28;20226;-72
2022/05/12 11:15:56;;;;;;;16.33;1.80;;;31.90;55.30;;;;;;4978879;28;20226;-72
2022/05/12 11:18:49;;;;;;;22.15;3.28;;;32.70;53.40;;;;;;4978553;28;20215;-73
2022/05/12 11:21:50;;;;;;;16.75;2.38;;;34.60;51.90;;;;;;4976960;28;20270;-73
2022/05/12 11:24:47;;;;;;;12.10;2.17;;;35.30;50.40;;;;;;4979834;28;20226;-73
2022/05/12 11:27:46;;;;;;;18.48;2.25;;;34.40;49.70;;;;;;4978929;28;20218;-72
2022/05/12 11:30:37;;;;;;;24.15;2.75;;;32.00;51.00;;;;;;4983887;28;20577;-73
2022/05/12 11:33:34;;;;;;;15.85;1.98;;;28.90;53.50;;;;;;4977572;28;20222;-73
2022/05/12 11:36:38;;;;;;;13.40;2.58;;;27.60;55.90;;;;;;4979495;28;20309;-72
2022/05/12 11:39:31;;;;;;;17.30;2.10;;;26.50;57.60;;;;;;4981273;28;20225;-72
2022/05/12 11:42:26;;;;;;;20.65;3.00;;;26.30;58.70;;;;;;4959340;28;20229;-73
2022/05/12 11:45:37;;;;;;;16.42;2.38;;;27.90;59.50;;;;;;4961046;28;20219;-72
2022/05/12 11:48:37;;;;;;;22.83;2.30;;;28.20;56.10;;;;;;4963319;28;20334;-72
2022/05/12 11:51:39;;;;;;;28.05;3.13;;;28.00;57.50;;;;;;4961179;28;20222;-74
2022/05/12 11:54:34;;;;;;;22.67;2.78;;;28.30;55.70;;;;;;4972843;28;20219;-73
2022/05/12 11:57:27;;;;;;;12.93;2.00;;;29.40;54.20;;;;;;4958663;28;20227;-73
2022/05/12 12:00:57;;;;;;;19.42;2.60;;;29.70;53.50;;;;;;4959858;28;20233;-74
2022/05/12 12:03:54;;;;;;;16.75;2.25;;;31.90;51.50;;;;;;4967754;28;20730;-73
2022/05/12 12:06:51;;;;;;;16.92;2.65;;;32.90;50.00;;;;;;4958892;28;20765;-74
2022/05/12 12:09:56;;;;;;;15.48;2.40;;;33.30;49.30;;;;;;4960907;28;20227;-74
2022/05/12 12:13:00;;;;;;;15.82;2.53;;;34.30;48.60;;;;;;4960342;28;20221;-74
2022/05/12 12:16:05;;;;;;;19.20;2.15;;;34.40;46.50;;;;;;4960671;28;20216;-74
2022/05/12 12:19:01;;;;;;;7.57;2.30;;;32.40;46.90;;;;;;4954912;28;20231;-72
2022/05/12 12:22:06;;;;;;;16.33;2.38;;;32.20;48.30;;;;;;4962100;28;20231;-73
2022/05/12 12:25:05;;;;;;;16.05;1.95;;;32.30;47.00;;;;;;4960575;28;20218;-75
2022/05/12 12:28:22;;;;;;;20.02;2.28;;;32.10;45.80;;;;;;4959726;28;20231;-72
2022/05/12 12:31:25;;;;;;;16.30;2.17;;;32.70;45.40;;;;;;4966306;28;20241;-73
2022/05/12 12:34:18;;;;;;;13.10;2.05;;;30.50;46.30;;;;;;4958438;28;20309;-72
2022/05/12 12:37:09;;;;;;;15.57;2.45;;;29.30;48.00;;;;;;4978210;28;20701;-72
2022/05/12 12:39:58;;;;;;;14.65;2.58;;;28.10;49.50;;;;;;4991798;28;20291;-73
2022/05/12 12:42:47;;;;;;;19.38;2.50;;;27.20;50.00;;;;;;4981233;28;20231;-72
2022/05/12 12:45:48;;;;;;;14.65;2.72;;;26.70;50.70;;;;;;4977832;28;20222;-72
2022/05/12 12:48:44;;;;;;;23.15;2.40;;;26.50;50.90;;;;;;5008207;28;21016;-72
2022/05/12 12:51:37;;;;;;;17.08;2.42;;;26.00;51.20;;;;;;5020853;28;20225;-73
2022/05/12 12:57:48;;;;;;;27.63;2.97;;;25.60;50.70;;;;;;4944552;28;20237;-73
2022/05/12 13:00:38;;;;;;;25.50;2.85;;;25.00;51.20;;;;;;4997827;28;20570;-73
2022/05/12 13:03:31;;;;;;;20.02;2.97;;;25.10;51.90;;;;;;4997092;28;20230;-73
2022/05/12 13:06:34;;;;;;;19.42;2.50;;;25.30;52.20;;;;;;5006561;28;20226;-71
2022/05/12 13:09:28;;;;;;;16.67;2.45;;;25.20;52.30;;;;;;5007447;28;20337;-73
2022/05/12 13:12:22;;;;;;;27.50;2.95;;;24.60;52.90;;;;;;5019601;28;20313;-71
2022/05/12 13:15:19;;;;;;;19.52;2.45;;;24.60;53.60;;;;;;4999400;28;20891;-70
2022/05/12 13:18:18;;;;;;;22.75;2.78;;;24.70;53.10;;;;;;5005501;28;20313;-71
2022/05/12 13:21:25;;;;;;;19.58;2.53;;;24.60;53.40;;;;;;5018520;28;20375;-72
2022/05/12 13:24:19;;;;;;;23.27;2.75;;;24.60;54.20;;;;;;5010449;28;20773;-71
2022/05/12 13:27:24;;;;;;;17.00;2.28;;;24.50;54.20;;;;;;5020812;28;20463;-72
2022/05/12 13:30:16;;;;;;;22.73;2.67;;;24.40;54.40;;;;;;5022934;28;20233;-73
2022/05/12 13:33:09;;;;;;;20.80;2.70;;;24.00;54.80;;;;;;5007395;28;20239;-70
2022/05/12 13:36:00;;;;;;;16.85;2.55;;;24.10;54.50;;;;;;5004579;28;20708;-71
2022/05/12 13:38:53;;;;;;;13.05;2.50;;;24.60;54.30;;;;;;5014399;28;20354;-70
2022/05/12 13:41:47;;;;;;;18.30;2.80;;;24.20;54.50;;;;;;5019293;28;20719;-72
2022/05/12 13:44:39;;;;;;;21.35;4.18;;;24.00;55.20;;;;;;5034557;28;20316;-72
2022/05/12 13:47:34;;;;;;;16.55;3.83;;;23.70;56.60;;;;;;5039387;28;20234;-74
2022/05/12 13:50:35;;;;;;;16.25;3.17;;;23.70;56.50;;;;;;5016476;28;20694;-73
2022/05/12 13:53:28;;;;;;;16.27;3.40;;;23.60;57.10;;;;;;5022735;28;20594;-73
2022/05/12 13:56:27;;;;;;;20.92;3.33;;;23.80;57.20;;;;;;5023776;28;20248;-73
2022/05/12 13:59:24;;;;;;;20.92;2.28;;;24.20;57.30;;;;;;5003089;28;20218;-73
2022/05/12 14:02:20;;;;;;;20.38;2.65;;;24.10;57.60;;;;;;5002016;28;20308;-72
2022/05/12 14:05:11;;;;;;;18.23;2.47;;;23.70;58.70;;;;;;5000893;28;20225;-72
2022/05/12 14:08:05;;;;;;;20.90;2.40;;;23.50;59.30;;;;;;5010024;28;20221;-72
2022/05/12 14:11:12;;;;;;;12.55;2.35;;;23.40;59.70;;;;;;5007451;28;20225;-73
2022/05/12 14:20:20;;;;;;;22.75;2.92;;;23.80;59.20;;;;;;5012515;28;20641;-72
2022/05/12 14:23:08;;;;;;;18.05;2.60;;;23.60;59.90;;;;;;5014569;28;20341;-72
2022/05/12 14:25:57;;;;;;;28.58;2.75;;;23.50;59.80;;;;;;4987664;28;20222;-72
2022/05/12 14:28:46;;;;;;;13.27;2.33;;;23.40;60.10;;;;;;5018507;28;20312;-71
2022/05/12 14:31:36;;;;;;;18.70;2.90;;;23.40;60.60;;;;;;5032485;28;20221;-73
2022/05/12 14:34:27;;;;;;;16.05;2.45;;;23.60;60.30;;;;;;5019088;28;20596;-73
2022/05/12 14:37:18;;;;;;;24.95;2.92;;;23.40;60.30;;;;;;5007414;28;20851;-73
2022/05/12 14:40:08;;;;;;;13.25;2.95;;;23.40;60.30;;;;;;5005108;28;20304;-73
2022/05/12 14:42:58;;;;;;;16.05;2.60;;;23.30;60.50;;;;;;5020734;28;20224;-73
2022/05/12 14:45:48;;;;;;;15.32;2.20;;;23.20;59.80;;;;;;5032888;28;20228;-72
2022/05/12 14:48:42;;;;;;;22.58;2.17;;;23.10;60.20;;;;;;5016672;28;20284;-73
2022/05/12 14:51:31;;;;;;;13.93;2.10;;;23.10;60.00;;;;;;5018927;28;20246;-73
2022/05/12 14:54:21;;;;;;;8.85;2.22;;;23.30;59.60;;;;;;5007132;28;20301;-74
2022/05/12 14:57:10;;;;;;;12.35;2.35;;;23.30;59.10;;;;;;5006565;28;20218;-73
2022/05/12 14:59:59;;;;;;;12.82;2.22;;;23.40;58.90;;;;;;5009292;28;20596;-74
2022/05/12 15:02:48;;;;;;;10.32;2.17;;;23.30;58.80;;;;;;5033766;28;20253;-73
2022/05/12 15:05:43;;;;;;;11.35;1.80;;;23.10;57.50;;;;;;5009603;28;20511;-72
2022/05/12 15:08:33;;;;;;;8.82;1.85;;;23.10;57.30;;;;;;5006998;28;20711;-72
2022/05/12 15:11:23;;;;;;;11.40;1.65;;;23.10;57.50;;;;;;5021165;28;20675;-73
2022/05/12 15:14:12;;;;;;;12.45;1.88;;;22.90;57.70;;;;;;5020490;28;20218;-72
2022/05/12 15:17:01;;;;;;;12.23;2.28;;;23.10;58.10;;;;;;5005166;28;20258;-72